sensor_id;sensor_type;location;lat;lon;timestamp;P1;durP1;ratioP1;P2;durP2;ratioP2
13327;SDS011;6733;51.044;3.746;2023-12-29T00:00:53;12.77;;;2.27;;
13327;SDS011;6733;51.044;3.746;2023-12-29T00:03:19;8.87;;;2.10;;
13327;SDS011;6733;51.044;3.746;2023-12-29T00:05:46;6.63;;;1.73;;
13327;SDS011;6733;51.044;3.746;2023-12-29T00:08:12;10.10;;;1.90;;
13327;SDS011;6733;51.044;3.746;2023-12-29T00:10:38;10.67;;;2.40;;
13327;SDS011;6733;51.044;3.746;2023-12-29T00:13:04;7.37;;;2.20;;
13327;SDS011;6733;51.044;3.746;2023-12-29T00:15:30;8.10;;;2.50;;
13327;SDS011;6733;51.044;3.746;2023-12-29T00:17:57;8.63;;;1.97;;
13327;SDS011;6733;51.044;3.746;2023-12-29T00:20:23;13.53;;;2.23;;
13327;SDS011;6733;51.044;3.746;2023-12-29T00:22:49;10.70;;;2.20;;
13327;SDS011;6733;51.044;3.746;2023-12-29T00:25:15;11.20;;;1.87;;
13327;SDS011;6733;51.044;3.746;2023-12-29T00:27:42;9.70;;;2.20;;
13327;SDS011;6733;51.044;3.746;2023-12-29T00:30:08;6.77;;;2.30;;
13327;SDS011;6733;51.044;3.746;2023-12-29T00:32:34;8.30;;;1.80;;
13327;SDS011;6733;51.044;3.746;2023-12-29T00:35:01;10.50;;;2.30;;
13327;SDS011;6733;51.044;3.746;2023-12-29T00:37:27;12.23;;;2.47;;
13327;SDS011;6733;51.044;3.746;2023-12-29T00:39:53;7.73;;;2.30;;
13327;SDS011;6733;51.044;3.746;2023-12-29T00:42:19;12.07;;;2.80;;
13327;SDS011;6733;51.044;3.746;2023-12-29T00:44:45;9.00;;;2.30;;
13327;SDS011;6733;51.044;3.746;2023-12-29T00:47:11;14.10;;;2.67;;
13327;SDS011;6733;51.044;3.746;2023-12-29T00:49:38;9.90;;;2.37;;
13327;SDS011;6733;51.044;3.746;2023-12-29T00:52:05;10.83;;;2.50;;
13327;SDS011;6733;51.044;3.746;2023-12-29T00:54:32;8.77;;;2.57;;
13327;SDS011;6733;51.044;3.746;2023-12-29T00:56:58;8.23;;;2.53;;
13327;SDS011;6733;51.044;3.746;2023-12-29T00:59:24;14.67;;;2.60;;
13327;SDS011;6733;51.044;3.746;2023-12-29T01:01:50;11.07;;;2.77;;
13327;SDS011;6733;51.044;3.746;2023-12-29T01:04:16;9.80;;;2.47;;
13327;SDS011;6733;51.044;3.746;2023-12-29T01:06:42;6.53;;;2.30;;
13327;SDS011;6733;51.044;3.746;2023-12-29T01:09:08;8.67;;;2.10;;
13327;SDS011;6733;51.044;3.746;2023-12-29T01:11:35;12.97;;;3.00;;
13327;SDS011;6733;51.044;3.746;2023-12-29T01:14:02;9.87;;;2.57;;
13327;SDS011;6733;51.044;3.746;2023-12-29T01:16:28;7.57;;;2.03;;
13327;SDS011;6733;51.044;3.746;2023-12-29T01:18:54;12.23;;;2.47;;
13327;SDS011;6733;51.044;3.746;2023-12-29T01:21:20;9.20;;;2.30;;
13327;SDS011;6733;51.044;3.746;2023-12-29T01:23:46;10.20;;;2.43;;
13327;SDS011;6733;51.044;3.746;2023-12-29T01:26:12;9.63;;;2.60;;
13327;SDS011;6733;51.044;3.746;2023-12-29T01:28:39;8.00;;;2.30;;
13327;SDS011;6733;51.044;3.746;2023-12-29T01:31:05;9.17;;;2.77;;
13327;SDS011;6733;51.044;3.746;2023-12-29T01:33:31;11.77;;;3.03;;
13327;SDS011;6733;51.044;3.746;2023-12-29T01:35:57;8.40;;;2.73;;
13327;SDS011;6733;51.044;3.746;2023-12-29T01:38:23;10.37;;;2.70;;
13327;SDS011;6733;51.044;3.746;2023-12-29T01:40:49;10.13;;;2.57;;
13327;SDS011;6733;51.044;3.746;2023-12-29T01:43:15;10.63;;;2.50;;
13327;SDS011;6733;51.044;3.746;2023-12-29T01:45:42;8.60;;;2.60;;
13327;SDS011;6733;51.044;3.746;2023-12-29T01:48:08;8.70;;;2.70;;
13327;SDS011;6733;51.044;3.746;2023-12-29T01:50:34;11.93;;;2.70;;
13327;SDS011;6733;51.044;3.746;2023-12-29T01:53:01;8.97;;;2.30;;
13327;SDS011;6733;51.044;3.746;2023-12-29T01:55:29;8.20;;;2.20;;
13327;SDS011;6733;51.044;3.746;2023-12-29T01:57:56;9.57;;;2.30;;
13327;SDS011;6733;51.044;3.746;2023-12-29T02:00:23;12.83;;;2.70;;
13327;SDS011;6733;51.044;3.746;2023-12-29T02:02:49;9.07;;;2.20;;
13327;SDS011;6733;51.044;3.746;2023-12-29T02:05:16;9.00;;;3.27;;
13327;SDS011;6733;51.044;3.746;2023-12-29T02:07:45;9.30;;;2.30;;
13327;SDS011;6733;51.044;3.746;2023-12-29T02:10:13;6.70;;;2.30;;
13327;SDS011;6733;51.044;3.746;2023-12-29T02:12:41;9.17;;;2.97;;
13327;SDS011;6733;51.044;3.746;2023-12-29T02:15:07;9.60;;;2.63;;
13327;SDS011;6733;51.044;3.746;2023-12-29T02:17:36;10.13;;;2.30;;
13327;SDS011;6733;51.044;3.746;2023-12-29T02:20:10;12.13;;;2.63;;
13327;SDS011;6733;51.044;3.746;2023-12-29T02:22:38;7.13;;;2.50;;
13327;SDS011;6733;51.044;3.746;2023-12-29T02:25:05;7.63;;;2.57;;
13327;SDS011;6733;51.044;3.746;2023-12-29T02:30:18;15.20;;;2.87;;
13327;SDS011;6733;51.044;3.746;2023-12-29T03:01:14;7.90;;;2.30;;
13327;SDS011;6733;51.044;3.746;2023-12-29T03:03:40;8.40;;;2.10;;
13327;SDS011;6733;51.044;3.746;2023-12-29T03:06:06;5.87;;;2.13;;
13327;SDS011;6733;51.044;3.746;2023-12-29T03:08:32;10.97;;;2.70;;
13327;SDS011;6733;51.044;3.746;2023-12-29T03:10:59;12.03;;;2.80;;
13327;SDS011;6733;51.044;3.746;2023-12-29T03:13:25;10.13;;;2.57;;
13327;SDS011;6733;51.044;3.746;2023-12-29T03:15:51;7.83;;;2.53;;
13327;SDS011;6733;51.044;3.746;2023-12-29T03:18:17;11.80;;;2.20;;
13327;SDS011;6733;51.044;3.746;2023-12-29T03:20:43;10.33;;;2.23;;
13327;SDS011;6733;51.044;3.746;2023-12-29T03:23:09;10.37;;;2.73;;
13327;SDS011;6733;51.044;3.746;2023-12-29T03:25:35;10.33;;;2.70;;
13327;SDS011;6733;51.044;3.746;2023-12-29T03:28:02;10.67;;;2.60;;
13327;SDS011;6733;51.044;3.746;2023-12-29T03:30:28;12.50;;;2.50;;
13327;SDS011;6733;51.044;3.746;2023-12-29T03:32:54;8.97;;;2.50;;
13327;SDS011;6733;51.044;3.746;2023-12-29T03:35:20;9.37;;;2.70;;
13327;SDS011;6733;51.044;3.746;2023-12-29T03:37:46;11.03;;;2.70;;
13327;SDS011;6733;51.044;3.746;2023-12-29T03:40:12;9.43;;;2.17;;
13327;SDS011;6733;51.044;3.746;2023-12-29T03:42:39;9.07;;;2.60;;
13327;SDS011;6733;51.044;3.746;2023-12-29T03:45:05;8.50;;;2.50;;
13327;SDS011;6733;51.044;3.746;2023-12-29T03:47:32;16.53;;;3.20;;
13327;SDS011;6733;51.044;3.746;2023-12-29T03:49:58;6.47;;;2.40;;
13327;SDS011;6733;51.044;3.746;2023-12-29T03:52:24;9.57;;;2.40;;
13327;SDS011;6733;51.044;3.746;2023-12-29T03:54:50;7.87;;;2.57;;
13327;SDS011;6733;51.044;3.746;2023-12-29T03:57:17;13.50;;;2.70;;
13327;SDS011;6733;51.044;3.746;2023-12-29T03:59:43;10.10;;;2.87;;
13327;SDS011;6733;51.044;3.746;2023-12-29T04:02:09;8.93;;;2.77;;
13327;SDS011;6733;51.044;3.746;2023-12-29T04:04:36;10.80;;;2.47;;
13327;SDS011;6733;51.044;3.746;2023-12-29T04:07:04;7.53;;;2.20;;
13327;SDS011;6733;51.044;3.746;2023-12-29T04:09:30;9.50;;;2.60;;
13327;SDS011;6733;51.044;3.746;2023-12-29T04:11:56;7.03;;;2.20;;
13327;SDS011;6733;51.044;3.746;2023-12-29T04:14:23;10.13;;;2.40;;
13327;SDS011;6733;51.044;3.746;2023-12-29T04:16:49;12.03;;;2.47;;
13327;SDS011;6733;51.044;3.746;2023-12-29T04:19:15;8.43;;;2.60;;
13327;SDS011;6733;51.044;3.746;2023-12-29T04:21:41;9.53;;;2.77;;
13327;SDS011;6733;51.044;3.746;2023-12-29T04:24:07;10.57;;;3.10;;
13327;SDS011;6733;51.044;3.746;2023-12-29T04:26:37;9.53;;;2.47;;
13327;SDS011;6733;51.044;3.746;2023-12-29T04:29:03;10.37;;;2.67;;
13327;SDS011;6733;51.044;3.746;2023-12-29T04:31:29;11.77;;;2.53;;
13327;SDS011;6733;51.044;3.746;2023-12-29T04:33:55;8.80;;;2.57;;
13327;SDS011;6733;51.044;3.746;2023-12-29T04:36:21;8.23;;;2.23;;
13327;SDS011;6733;51.044;3.746;2023-12-29T04:38:47;12.20;;;2.83;;
13327;SDS011;6733;51.044;3.746;2023-12-29T04:41:13;11.13;;;2.20;;
13327;SDS011;6733;51.044;3.746;2023-12-29T04:43:40;7.77;;;2.53;;
13327;SDS011;6733;51.044;3.746;2023-12-29T04:46:06;11.30;;;2.47;;
13327;SDS011;6733;51.044;3.746;2023-12-29T04:48:32;6.30;;;1.87;;
13327;SDS011;6733;51.044;3.746;2023-12-29T04:50:58;11.40;;;2.37;;
13327;SDS011;6733;51.044;3.746;2023-12-29T04:53:25;8.10;;;2.43;;
13327;SDS011;6733;51.044;3.746;2023-12-29T04:55:51;8.03;;;2.13;;
13327;SDS011;6733;51.044;3.746;2023-12-29T04:58:17;9.40;;;2.47;;
13327;SDS011;6733;51.044;3.746;2023-12-29T05:00:43;7.90;;;2.17;;
13327;SDS011;6733;51.044;3.746;2023-12-29T05:03:09;8.97;;;2.10;;
13327;SDS011;6733;51.044;3.746;2023-12-29T05:05:35;8.50;;;2.37;;
13327;SDS011;6733;51.044;3.746;2023-12-29T05:08:01;8.37;;;2.27;;
13327;SDS011;6733;51.044;3.746;2023-12-29T05:10:28;11.30;;;2.33;;
13327;SDS011;6733;51.044;3.746;2023-12-29T05:12:54;11.03;;;2.40;;
13327;SDS011;6733;51.044;3.746;2023-12-29T05:15:20;8.20;;;1.87;;
13327;SDS011;6733;51.044;3.746;2023-12-29T05:17:47;12.10;;;3.00;;
13327;SDS011;6733;51.044;3.746;2023-12-29T05:20:13;10.00;;;2.60;;
13327;SDS011;6733;51.044;3.746;2023-12-29T05:22:39;9.37;;;2.30;;
13327;SDS011;6733;51.044;3.746;2023-12-29T05:25:05;11.07;;;2.73;;
13327;SDS011;6733;51.044;3.746;2023-12-29T05:27:32;10.40;;;2.40;;
13327;SDS011;6733;51.044;3.746;2023-12-29T05:29:58;9.43;;;2.30;;
13327;SDS011;6733;51.044;3.746;2023-12-29T05:32:24;13.13;;;2.63;;
13327;SDS011;6733;51.044;3.746;2023-12-29T05:34:50;7.40;;;2.17;;
13327;SDS011;6733;51.044;3.746;2023-12-29T05:37:17;7.50;;;2.40;;
13327;SDS011;6733;51.044;3.746;2023-12-29T05:39:43;8.00;;;2.20;;
13327;SDS011;6733;51.044;3.746;2023-12-29T05:42:09;6.70;;;2.50;;
13327;SDS011;6733;51.044;3.746;2023-12-29T05:44:36;9.30;;;2.20;;
13327;SDS011;6733;51.044;3.746;2023-12-29T05:47:03;8.00;;;2.50;;
13327;SDS011;6733;51.044;3.746;2023-12-29T05:49:30;7.10;;;2.00;;
13327;SDS011;6733;51.044;3.746;2023-12-29T05:51:57;4.67;;;1.77;;
13327;SDS011;6733;51.044;3.746;2023-12-29T05:54:23;8.37;;;2.17;;
13327;SDS011;6733;51.044;3.746;2023-12-29T05:56:50;7.53;;;2.30;;
13327;SDS011;6733;51.044;3.746;2023-12-29T05:59:16;5.03;;;1.80;;
13327;SDS011;6733;51.044;3.746;2023-12-29T06:01:42;9.47;;;2.47;;
13327;SDS011;6733;51.044;3.746;2023-12-29T06:04:09;7.53;;;2.30;;
13327;SDS011;6733;51.044;3.746;2023-12-29T06:06:35;9.17;;;2.23;;
13327;SDS011;6733;51.044;3.746;2023-12-29T06:09:01;9.87;;;2.60;;
13327;SDS011;6733;51.044;3.746;2023-12-29T06:11:27;9.20;;;2.30;;
13327;SDS011;6733;51.044;3.746;2023-12-29T06:13:54;9.87;;;2.07;;
13327;SDS011;6733;51.044;3.746;2023-12-29T06:16:20;10.23;;;2.47;;
13327;SDS011;6733;51.044;3.746;2023-12-29T06:18:47;6.73;;;2.27;;
13327;SDS011;6733;51.044;3.746;2023-12-29T06:21:13;5.97;;;2.50;;
13327;SDS011;6733;51.044;3.746;2023-12-29T06:23:39;6.00;;;1.77;;
13327;SDS011;6733;51.044;3.746;2023-12-29T06:26:05;6.70;;;2.00;;
13327;SDS011;6733;51.044;3.746;2023-12-29T06:28:48;7.37;;;2.10;;
13327;SDS011;6733;51.044;3.746;2023-12-29T06:31:16;5.70;;;2.10;;
13327;SDS011;6733;51.044;3.746;2023-12-29T06:33:43;8.53;;;2.30;;
13327;SDS011;6733;51.044;3.746;2023-12-29T06:36:10;6.33;;;1.87;;
13327;SDS011;6733;51.044;3.746;2023-12-29T06:38:36;8.30;;;2.20;;
13327;SDS011;6733;51.044;3.746;2023-12-29T06:41:03;6.93;;;2.20;;
13327;SDS011;6733;51.044;3.746;2023-12-29T06:43:29;7.20;;;2.10;;
13327;SDS011;6733;51.044;3.746;2023-12-29T06:45:56;8.00;;;1.83;;
13327;SDS011;6733;51.044;3.746;2023-12-29T06:48:22;5.83;;;1.70;;
13327;SDS011;6733;51.044;3.746;2023-12-29T06:50:48;9.17;;;1.80;;
13327;SDS011;6733;51.044;3.746;2023-12-29T06:53:14;5.53;;;1.97;;
13327;SDS011;6733;51.044;3.746;2023-12-29T06:55:41;6.13;;;1.83;;
13327;SDS011;6733;51.044;3.746;2023-12-29T06:58:07;7.50;;;1.87;;
13327;SDS011;6733;51.044;3.746;2023-12-29T07:00:33;6.27;;;1.70;;
13327;SDS011;6733;51.044;3.746;2023-12-29T07:03:00;4.57;;;1.70;;
13327;SDS011;6733;51.044;3.746;2023-12-29T07:05:27;7.33;;;1.70;;
13327;SDS011;6733;51.044;3.746;2023-12-29T07:07:53;6.00;;;1.50;;
13327;SDS011;6733;51.044;3.746;2023-12-29T07:10:19;4.57;;;1.30;;
13327;SDS011;6733;51.044;3.746;2023-12-29T07:12:45;5.90;;;1.80;;
13327;SDS011;6733;51.044;3.746;2023-12-29T07:15:11;5.13;;;1.70;;
13327;SDS011;6733;51.044;3.746;2023-12-29T07:17:39;4.37;;;1.40;;
13327;SDS011;6733;51.044;3.746;2023-12-29T07:20:06;1.90;;;1.10;;
13327;SDS011;6733;51.044;3.746;2023-12-29T07:22:33;5.40;;;1.40;;
13327;SDS011;6733;51.044;3.746;2023-12-29T07:24:59;5.00;;;1.43;;
13327;SDS011;6733;51.044;3.746;2023-12-29T07:27:26;1.47;;;1.10;;
13327;SDS011;6733;51.044;3.746;2023-12-29T07:29:52;3.67;;;1.20;;
13327;SDS011;6733;51.044;3.746;2023-12-29T07:32:18;3.87;;;1.00;;
13327;SDS011;6733;51.044;3.746;2023-12-29T07:34:44;1.83;;;0.80;;
13327;SDS011;6733;51.044;3.746;2023-12-29T07:37:10;2.40;;;1.10;;
13327;SDS011;6733;51.044;3.746;2023-12-29T07:39:37;1.17;;;0.80;;
13327;SDS011;6733;51.044;3.746;2023-12-29T07:42:03;1.83;;;0.80;;
13327;SDS011;6733;51.044;3.746;2023-12-29T07:44:29;4.83;;;0.67;;
13327;SDS011;6733;51.044;3.746;2023-12-29T07:46:58;2.07;;;0.70;;
13327;SDS011;6733;51.044;3.746;2023-12-29T07:49:24;1.53;;;0.70;;
13327;SDS011;6733;51.044;3.746;2023-12-29T07:51:52;2.60;;;0.70;;
13327;SDS011;6733;51.044;3.746;2023-12-29T07:54:18;2.10;;;0.60;;
13327;SDS011;6733;51.044;3.746;2023-12-29T07:56:44;1.00;;;0.50;;
13327;SDS011;6733;51.044;3.746;2023-12-29T07:59:10;1.57;;;0.60;;
13327;SDS011;6733;51.044;3.746;2023-12-29T08:01:36;2.43;;;0.70;;
13327;SDS011;6733;51.044;3.746;2023-12-29T08:04:03;1.37;;;0.70;;
13327;SDS011;6733;51.044;3.746;2023-12-29T08:06:29;1.23;;;0.63;;
13327;SDS011;6733;51.044;3.746;2023-12-29T08:08:55;1.97;;;0.70;;
13327;SDS011;6733;51.044;3.746;2023-12-29T08:11:22;2.63;;;0.80;;
13327;SDS011;6733;51.044;3.746;2023-12-29T08:13:48;1.90;;;1.00;;
13327;SDS011;6733;51.044;3.746;2023-12-29T08:16:15;2.07;;;0.90;;
13327;SDS011;6733;51.044;3.746;2023-12-29T08:18:45;3.60;;;0.90;;
13327;SDS011;6733;51.044;3.746;2023-12-29T08:21:16;1.93;;;0.93;;
13327;SDS011;6733;51.044;3.746;2023-12-29T08:23:45;1.43;;;0.90;;
13327;SDS011;6733;51.044;3.746;2023-12-29T08:26:12;1.43;;;0.60;;
13327;SDS011;6733;51.044;3.746;2023-12-29T08:28:38;1.53;;;0.67;;
13327;SDS011;6733;51.044;3.746;2023-12-29T08:31:05;1.00;;;0.70;;
13327;SDS011;6733;51.044;3.746;2023-12-29T08:33:32;1.30;;;0.80;;
13327;SDS011;6733;51.044;3.746;2023-12-29T08:35:58;1.20;;;0.93;;
13327;SDS011;6733;51.044;3.746;2023-12-29T08:38:26;2.47;;;1.00;;
13327;SDS011;6733;51.044;3.746;2023-12-29T08:40:52;3.23;;;1.40;;
13327;SDS011;6733;51.044;3.746;2023-12-29T08:43:18;4.47;;;1.33;;
13327;SDS011;6733;51.044;3.746;2023-12-29T08:45:47;3.13;;;1.00;;
13327;SDS011;6733;51.044;3.746;2023-12-29T08:48:13;3.40;;;1.40;;
13327;SDS011;6733;51.044;3.746;2023-12-29T08:50:39;2.70;;;1.10;;
13327;SDS011;6733;51.044;3.746;2023-12-29T08:53:06;1.33;;;1.00;;
13327;SDS011;6733;51.044;3.746;2023-12-29T08:55:32;4.97;;;1.30;;
13327;SDS011;6733;51.044;3.746;2023-12-29T08:57:58;2.80;;;1.07;;
13327;SDS011;6733;51.044;3.746;2023-12-29T09:00:24;4.77;;;1.20;;
13327;SDS011;6733;51.044;3.746;2023-12-29T09:02:50;3.33;;;1.07;;
13327;SDS011;6733;51.044;3.746;2023-12-29T09:05:17;2.37;;;0.90;;
13327;SDS011;6733;51.044;3.746;2023-12-29T09:07:43;3.33;;;1.07;;
13327;SDS011;6733;51.044;3.746;2023-12-29T09:10:10;2.37;;;0.80;;
13327;SDS011;6733;51.044;3.746;2023-12-29T09:12:38;3.00;;;1.00;;
13327;SDS011;6733;51.044;3.746;2023-12-29T09:15:05;2.33;;;1.00;;
13327;SDS011;6733;51.044;3.746;2023-12-29T09:17:32;3.90;;;1.70;;
13327;SDS011;6733;51.044;3.746;2023-12-29T09:19:58;3.97;;;1.30;;
13327;SDS011;6733;51.044;3.746;2023-12-29T09:22:24;1.97;;;1.00;;
13327;SDS011;6733;51.044;3.746;2023-12-29T09:24:51;3.40;;;0.83;;
13327;SDS011;6733;51.044;3.746;2023-12-29T09:27:17;2.63;;;0.97;;
13327;SDS011;6733;51.044;3.746;2023-12-29T09:29:43;3.47;;;1.30;;
13327;SDS011;6733;51.044;3.746;2023-12-29T09:32:09;4.13;;;1.17;;
13327;SDS011;6733;51.044;3.746;2023-12-29T09:34:35;4.23;;;0.87;;
13327;SDS011;6733;51.044;3.746;2023-12-29T09:37:01;3.30;;;0.97;;
13327;SDS011;6733;51.044;3.746;2023-12-29T09:39:28;4.67;;;1.13;;
13327;SDS011;6733;51.044;3.746;2023-12-29T09:41:54;2.33;;;0.80;;
13327;SDS011;6733;51.044;3.746;2023-12-29T09:44:26;1.17;;;0.60;;
13327;SDS011;6733;51.044;3.746;2023-12-29T09:46:54;1.03;;;0.67;;
13327;SDS011;6733;51.044;3.746;2023-12-29T09:49:20;1.70;;;0.70;;
13327;SDS011;6733;51.044;3.746;2023-12-29T09:51:47;0.87;;;0.57;;
13327;SDS011;6733;51.044;3.746;2023-12-29T09:54:14;3.23;;;0.70;;
13327;SDS011;6733;51.044;3.746;2023-12-29T09:56:41;4.20;;;0.70;;
13327;SDS011;6733;51.044;3.746;2023-12-29T09:59:10;1.03;;;0.60;;
13327;SDS011;6733;51.044;3.746;2023-12-29T10:01:38;2.43;;;0.50;;
13327;SDS011;6733;51.044;3.746;2023-12-29T10:04:06;0.90;;;0.47;;
13327;SDS011;6733;51.044;3.746;2023-12-29T10:06:34;0.47;;;0.40;;
13327;SDS011;6733;51.044;3.746;2023-12-29T10:09:04;0.73;;;0.60;;
13327;SDS011;6733;51.044;3.746;2023-12-29T10:11:34;1.03;;;0.50;;
13327;SDS011;6733;51.044;3.746;2023-12-29T10:14:03;1.30;;;0.60;;
13327;SDS011;6733;51.044;3.746;2023-12-29T10:17:09;4.63;;;0.80;;
13327;SDS011;6733;51.044;3.746;2023-12-29T10:19:46;1.60;;;0.60;;
13327;SDS011;6733;51.044;3.746;2023-12-29T10:22:25;4.40;;;1.00;;
13327;SDS011;6733;51.044;3.746;2023-12-29T10:24:59;3.37;;;0.90;;
13327;SDS011;6733;51.044;3.746;2023-12-29T10:27:26;3.97;;;0.90;;
13327;SDS011;6733;51.044;3.746;2023-12-29T10:29:53;5.40;;;1.30;;
13327;SDS011;6733;51.044;3.746;2023-12-29T10:32:19;2.93;;;1.10;;
13327;SDS011;6733;51.044;3.746;2023-12-29T10:34:45;6.60;;;1.80;;
13327;SDS011;6733;51.044;3.746;2023-12-29T10:37:11;5.40;;;1.83;;
13327;SDS011;6733;51.044;3.746;2023-12-29T10:39:54;4.57;;;1.80;;
13327;SDS011;6733;51.044;3.746;2023-12-29T10:42:22;5.50;;;1.70;;
13327;SDS011;6733;51.044;3.746;2023-12-29T10:44:48;6.47;;;2.23;;
13327;SDS011;6733;51.044;3.746;2023-12-29T10:47:35;7.70;;;2.00;;
13327;SDS011;6733;51.044;3.746;2023-12-29T10:50:02;7.90;;;2.00;;
13327;SDS011;6733;51.044;3.746;2023-12-29T10:52:29;7.47;;;2.10;;
13327;SDS011;6733;51.044;3.746;2023-12-29T10:55:04;7.60;;;1.93;;
13327;SDS011;6733;51.044;3.746;2023-12-29T10:57:36;5.97;;;1.80;;
13327;SDS011;6733;51.044;3.746;2023-12-29T11:00:04;4.87;;;1.73;;
13327;SDS011;6733;51.044;3.746;2023-12-29T11:02:33;5.13;;;1.87;;
13327;SDS011;6733;51.044;3.746;2023-12-29T11:05:04;6.97;;;2.13;;
13327;SDS011;6733;51.044;3.746;2023-12-29T11:07:34;7.07;;;1.77;;
13327;SDS011;6733;51.044;3.746;2023-12-29T11:10:03;5.10;;;2.10;;
13327;SDS011;6733;51.044;3.746;2023-12-29T11:12:32;6.20;;;2.00;;
13327;SDS011;6733;51.044;3.746;2023-12-29T11:15:00;9.17;;;2.23;;
13327;SDS011;6733;51.044;3.746;2023-12-29T11:17:29;4.60;;;1.87;;
13327;SDS011;6733;51.044;3.746;2023-12-29T11:19:58;7.63;;;2.30;;
13327;SDS011;6733;51.044;3.746;2023-12-29T11:22:26;8.07;;;2.20;;
13327;SDS011;6733;51.044;3.746;2023-12-29T11:24:57;7.97;;;2.58;;
13327;SDS011;6733;51.044;3.746;2023-12-29T11:27:28;7.25;;;2.00;;
13327;SDS011;6733;51.044;3.746;2023-12-29T11:29:57;6.30;;;1.98;;
13327;SDS011;6733;51.044;3.746;2023-12-29T11:32:46;7.53;;;1.90;;
13327;SDS011;6733;51.044;3.746;2023-12-29T11:35:26;6.67;;;2.20;;
13327;SDS011;6733;51.044;3.746;2023-12-29T11:40:36;6.53;;;1.67;;
13327;SDS011;6733;51.044;3.746;2023-12-29T11:43:18;6.27;;;1.80;;
13327;SDS011;6733;51.044;3.746;2023-12-29T11:45:44;7.57;;;1.80;;
13327;SDS011;6733;51.044;3.746;2023-12-29T11:48:10;3.47;;;2.10;;
13327;SDS011;6733;51.044;3.746;2023-12-29T11:50:37;6.07;;;1.90;;
13327;SDS011;6733;51.044;3.746;2023-12-29T11:53:08;3.67;;;1.70;;
13327;SDS011;6733;51.044;3.746;2023-12-29T11:55:37;5.35;;;1.80;;
13327;SDS011;6733;51.044;3.746;2023-12-29T11:58:22;3.67;;;2.00;;
13327;SDS011;6733;51.044;3.746;2023-12-29T12:00:49;4.03;;;1.83;;
13327;SDS011;6733;51.044;3.746;2023-12-29T12:03:25;4.85;;;1.70;;
13327;SDS011;6733;51.044;3.746;2023-12-29T12:05:53;5.07;;;1.65;;
13327;SDS011;6733;51.044;3.746;2023-12-29T12:13:55;5.03;;;1.57;;
13327;SDS011;6733;51.044;3.746;2023-12-29T12:19:11;3.23;;;1.40;;
13327;SDS011;6733;51.044;3.746;2023-12-29T12:21:37;2.87;;;1.20;;
13327;SDS011;6733;51.044;3.746;2023-12-29T12:24:04;2.50;;;1.08;;
13327;SDS011;6733;51.044;3.746;2023-12-29T12:26:31;10.43;;;2.70;;
13327;SDS011;6733;51.044;3.746;2023-12-29T12:29:00;4.57;;;1.20;;
13327;SDS011;6733;51.044;3.746;2023-12-29T12:31:27;5.97;;;1.13;;
13327;SDS011;6733;51.044;3.746;2023-12-29T12:33:56;3.30;;;1.03;;
13327;SDS011;6733;51.044;3.746;2023-12-29T12:36:23;3.15;;;1.08;;
13327;SDS011;6733;51.044;3.746;2023-12-29T12:38:51;3.43;;;1.10;;
13327;SDS011;6733;51.044;3.746;2023-12-29T12:41:21;2.20;;;0.80;;
13327;SDS011;6733;51.044;3.746;2023-12-29T12:46:35;1.47;;;0.93;;
13327;SDS011;6733;51.044;3.746;2023-12-29T12:49:22;4.30;;;1.50;;
13327;SDS011;6733;51.044;3.746;2023-12-29T12:51:48;2.50;;;1.00;;
13327;SDS011;6733;51.044;3.746;2023-12-29T12:54:19;5.17;;;1.50;;
13327;SDS011;6733;51.044;3.746;2023-12-29T12:56:46;4.60;;;1.63;;
13327;SDS011;6733;51.044;3.746;2023-12-29T12:59:13;3.67;;;1.17;;
13327;SDS011;6733;51.044;3.746;2023-12-29T13:01:40;6.97;;;2.25;;
13327;SDS011;6733;51.044;3.746;2023-12-29T13:04:06;3.53;;;1.73;;
13327;SDS011;6733;51.044;3.746;2023-12-29T13:06:34;4.50;;;1.50;;
13327;SDS011;6733;51.044;3.746;2023-12-29T13:09:06;3.40;;;1.33;;
13327;SDS011;6733;51.044;3.746;2023-12-29T13:11:37;1.80;;;1.20;;
13327;SDS011;6733;51.044;3.746;2023-12-29T13:14:04;2.67;;;1.13;;
13327;SDS011;6733;51.044;3.746;2023-12-29T13:19:20;2.33;;;1.17;;
13327;SDS011;6733;51.044;3.746;2023-12-29T13:21:55;6.88;;;2.10;;
13327;SDS011;6733;51.044;3.746;2023-12-29T13:24:22;2.25;;;1.15;;
13327;SDS011;6733;51.044;3.746;2023-12-29T13:26:51;3.10;;;1.20;;
13327;SDS011;6733;51.044;3.746;2023-12-29T13:29:28;2.37;;;1.30;;
13327;SDS011;6733;51.044;3.746;2023-12-29T13:31:56;3.67;;;1.67;;
13327;SDS011;6733;51.044;3.746;2023-12-29T13:34:54;3.08;;;1.55;;
13327;SDS011;6733;51.044;3.746;2023-12-29T13:37:33;4.25;;;1.50;;
13327;SDS011;6733;51.044;3.746;2023-12-29T13:42:44;4.90;;;1.40;;
13327;SDS011;6733;51.044;3.746;2023-12-29T13:45:12;3.83;;;1.27;;
13327;SDS011;6733;51.044;3.746;2023-12-29T13:47:41;2.30;;;1.05;;
13327;SDS011;6733;51.044;3.746;2023-12-29T13:50:10;4.28;;;1.67;;
13327;SDS011;6733;51.044;3.746;2023-12-29T13:52:37;3.40;;;1.60;;
13327;SDS011;6733;51.044;3.746;2023-12-29T13:55:03;1.65;;;1.10;;
13327;SDS011;6733;51.044;3.746;2023-12-29T13:57:31;2.88;;;1.25;;
13327;SDS011;6733;51.044;3.746;2023-12-29T14:00:03;1.58;;;1.00;;
13327;SDS011;6733;51.044;3.746;2023-12-29T14:05:31;2.50;;;1.10;;
13327;SDS011;6733;51.044;3.746;2023-12-29T14:10:30;1.73;;;1.03;;
13327;SDS011;6733;51.044;3.746;2023-12-29T14:13:30;4.35;;;1.23;;
13327;SDS011;6733;51.044;3.746;2023-12-29T14:15:50;3.47;;;1.30;;
13327;SDS011;6733;51.044;3.746;2023-12-29T14:20:46;3.60;;;1.10;;
13327;SDS011;6733;51.044;3.746;2023-12-29T14:23:12;2.60;;;0.80;;
13327;SDS011;6733;51.044;3.746;2023-12-29T14:25:39;2.57;;;1.00;;
13327;SDS011;6733;51.044;3.746;2023-12-29T14:28:14;1.93;;;0.83;;
13327;SDS011;6733;51.044;3.746;2023-12-29T14:30:41;3.67;;;0.90;;
13327;SDS011;6733;51.044;3.746;2023-12-29T14:33:08;2.60;;;1.30;;
13327;SDS011;6733;51.044;3.746;2023-12-29T14:35:34;4.60;;;0.90;;
13327;SDS011;6733;51.044;3.746;2023-12-29T14:38:01;3.25;;;1.20;;
13327;SDS011;6733;51.044;3.746;2023-12-29T14:40:27;2.67;;;1.00;;
13327;SDS011;6733;51.044;3.746;2023-12-29T14:42:54;3.03;;;1.20;;
13327;SDS011;6733;51.044;3.746;2023-12-29T14:45:20;4.60;;;1.50;;
13327;SDS011;6733;51.044;3.746;2023-12-29T14:47:46;4.20;;;1.30;;
13327;SDS011;6733;51.044;3.746;2023-12-29T14:50:15;2.55;;;1.25;;
13327;SDS011;6733;51.044;3.746;2023-12-29T14:52:41;3.55;;;1.17;;
13327;SDS011;6733;51.044;3.746;2023-12-29T14:55:08;3.22;;;1.58;;
13327;SDS011;6733;51.044;3.746;2023-12-29T14:57:34;5.47;;;1.63;;
13327;SDS011;6733;51.044;3.746;2023-12-29T15:00:00;6.17;;;1.60;;
13327;SDS011;6733;51.044;3.746;2023-12-29T15:02:26;3.23;;;1.30;;
13327;SDS011;6733;51.044;3.746;2023-12-29T15:04:52;3.17;;;1.50;;
13327;SDS011;6733;51.044;3.746;2023-12-29T15:07:18;3.97;;;1.40;;
13327;SDS011;6733;51.044;3.746;2023-12-29T15:09:45;6.88;;;1.73;;
13327;SDS011;6733;51.044;3.746;2023-12-29T15:12:11;5.83;;;1.60;;
13327;SDS011;6733;51.044;3.746;2023-12-29T15:14:37;7.93;;;2.00;;
13327;SDS011;6733;51.044;3.746;2023-12-29T15:17:03;8.47;;;2.17;;
13327;SDS011;6733;51.044;3.746;2023-12-29T15:19:29;6.93;;;1.80;;
13327;SDS011;6733;51.044;3.746;2023-12-29T15:21:55;6.50;;;1.90;;
13327;SDS011;6733;51.044;3.746;2023-12-29T15:24:21;9.67;;;1.90;;
13327;SDS011;6733;51.044;3.746;2023-12-29T15:26:48;11.50;;;2.10;;
13327;SDS011;6733;51.044;3.746;2023-12-29T15:29:14;8.27;;;1.97;;
13327;SDS011;6733;51.044;3.746;2023-12-29T15:31:44;10.77;;;2.30;;
13327;SDS011;6733;51.044;3.746;2023-12-29T15:34:11;6.25;;;2.20;;
13327;SDS011;6733;51.044;3.746;2023-12-29T15:36:37;7.03;;;2.65;;
13327;SDS011;6733;51.044;3.746;2023-12-29T15:39:03;9.57;;;2.87;;
13327;SDS011;6733;51.044;3.746;2023-12-29T15:41:33;8.80;;;2.77;;
13327;SDS011;6733;51.044;3.746;2023-12-29T15:43:59;12.77;;;2.80;;
13327;SDS011;6733;51.044;3.746;2023-12-29T15:46:29;9.03;;;2.47;;
13327;SDS011;6733;51.044;3.746;2023-12-29T15:48:55;7.40;;;2.43;;
13327;SDS011;6733;51.044;3.746;2023-12-29T15:51:23;13.90;;;2.83;;
13327;SDS011;6733;51.044;3.746;2023-12-29T15:53:49;10.97;;;2.90;;
13327;SDS011;6733;51.044;3.746;2023-12-29T15:56:17;8.07;;;2.07;;
13327;SDS011;6733;51.044;3.746;2023-12-29T15:58:44;10.43;;;2.13;;